Time;durP1;ratioP1;P1;durP2;ratioP2;P2;SDS_P1;SDS_P2;PMS_P1;PMS_P2;Temp;Humidity;BMP_temperature;BMP_pressure;BME280_temperature;BME280_humidity;BME280_pressure;Samples;Min_cycle;Max_cycle;Signal;HPM_P1;HPM_P2
2021/06/12 00:01:17;;;;;;;4.17;2.70;;;;;;;19.22;71.54;100854.41;4983113;28;20212;-68
2021/06/12 00:03:42;;;;;;;3.43;2.30;;;;;;;19.26;71.49;100847.72;4998669;28;20263;-68
2021/06/12 00:06:07;;;;;;;3.23;2.93;;;;;;;19.29;71.25;100851.00;5016749;28;20262;-69
2021/06/12 00:08:33;;;;;;;4.23;2.60;;;;;;;19.34;70.73;100845.22;4999604;28;20177;-68
2021/06/12 00:11:01;;;;;;;2.77;2.50;;;;;;;19.35;71.42;100849.63;5017903;28;20173;-68
2021/06/12 00:13:26;;;;;;;2.73;2.40;;;;;;;19.46;70.44;100854.94;4999598;28;20259;-69
2021/06/12 00:15:51;;;;;;;2.77;2.30;;;;;;;19.48;70.50;100850.25;4999250;28;20224;-69
2021/06/12 00:18:17;;;;;;;3.10;2.40;;;;;;;19.49;70.46;100845.69;5004984;28;20191;-69
2021/06/12 00:20:42;;;;;;;3.83;2.90;;;;;;;19.50;70.26;100847.41;5020654;28;20201;-69
2021/06/12 00:23:08;;;;;;;3.93;2.83;;;;;;;19.52;70.03;100846.25;5016405;28;20208;-68
2021/06/12 00:25:34;;;;;;;3.00;2.63;;;;;;;19.52;70.20;100848.09;4991210;28;20192;-68
2021/06/12 00:28:00;;;;;;;2.63;2.43;;;;;;;19.49;70.28;100843.81;5029622;28;20173;-68
2021/06/12 00:30:27;;;;;;;3.60;2.60;;;;;;;19.53;69.62;100848.00;5028242;28;20169;-69
2021/06/12 00:32:53;;;;;;;4.10;2.70;;;;;;;19.56;68.99;100850.44;5010832;28;20172;-69
2021/06/12 00:35:18;;;;;;;4.10;2.83;;;;;;;19.53;68.94;100845.28;5011045;28;20280;-69
2021/06/12 00:37:43;;;;;;;6.00;2.80;;;;;;;19.46;68.86;100841.41;5029572;28;20180;-69
2021/06/12 00:40:11;;;;;;;4.80;2.93;;;;;;;19.46;68.13;100838.69;5024593;28;20207;-68
2021/06/12 00:42:37;;;;;;;5.30;3.07;;;;;;;19.39;68.80;100834.84;5018892;28;20642;-68
2021/06/12 00:45:06;;;;;;;3.17;2.73;;;;;;;19.33;68.78;100829.97;4999191;28;20173;-68
2021/06/12 00:47:31;;;;;;;4.27;2.60;;;;;;;19.28;68.57;100824.09;4998347;28;20173;-68
2021/06/12 00:49:56;;;;;;;4.73;2.60;;;;;;;19.26;68.63;100817.97;5015704;28;20175;-68
2021/06/12 00:52:22;;;;;;;3.63;2.87;;;;;;;19.33;68.26;100822.72;5015473;28;20183;-68
2021/06/12 00:54:47;;;;;;;3.23;2.83;;;;;;;19.38;67.80;100821.44;4997880;28;20169;-68
2021/06/12 00:57:13;;;;;;;3.00;2.70;;;;;;;19.29;67.87;100823.09;5015058;28;20607;-68
2021/06/12 00:59:38;;;;;;;4.40;3.33;;;;;;;19.37;67.72;100820.59;5015091;28;20247;-68
2021/06/12 01:02:04;;;;;;;3.83;2.77;;;;;;;19.34;67.35;100819.00;5015110;28;20652;-68
2021/06/12 01:04:29;;;;;;;3.33;2.73;;;;;;;19.29;67.80;100818.53;5015656;28;20181;-68
2021/06/12 01:06:54;;;;;;;6.77;3.00;;;;;;;19.26;67.69;100818.81;4997573;28;20247;-68
2021/06/12 01:09:22;;;;;;;3.13;2.60;;;;;;;19.28;67.65;100814.13;4997628;28;20223;-69
2021/06/12 01:12:17;;;;;;;3.87;2.83;;;;;;;19.30;67.48;100822.09;5015205;28;20181;-68
2021/06/12 01:14:45;;;;;;;3.47;2.70;;;;;;;19.22;68.03;100825.50;5012051;28;20192;-68
2021/06/12 01:17:21;;;;;;;4.77;2.80;;;;;;;19.22;67.98;100830.91;5015019;28;20219;-68
2021/06/12 01:19:55;;;;;;;4.47;3.00;;;;;;;19.17;68.12;100819.66;5014974;28;20272;-68
2021/06/12 01:22:34;;;;;;;3.30;3.00;;;;;;;19.02;69.27;100821.88;5015079;28;20173;-68
2021/06/12 01:25:04;;;;;;;5.77;2.70;;;;;;;19.01;69.06;100822.00;4997165;28;20165;-69
2021/06/12 01:27:48;;;;;;;4.37;2.83;;;;;;;18.83;69.76;100812.81;5014987;28;20188;-69
2021/06/12 01:30:25;;;;;;;3.03;2.57;;;;;;;18.65;70.23;100821.53;4997196;28;20261;-69
2021/06/12 01:32:53;;;;;;;4.97;3.70;;;;;;;18.58;70.46;100820.31;4997582;28;20176;-69
2021/06/12 01:35:24;;;;;;;6.07;5.47;;;;;;;18.51;70.91;100826.38;5014725;28;20200;-69
2021/06/12 01:37:50;;;;;;;7.37;5.10;;;;;;;18.50;70.86;100828.22;4997391;28;20191;-69
2021/06/12 01:40:15;;;;;;;9.07;6.87;;;;;;;18.41;71.77;100829.03;4996863;28;20661;-68
2021/06/12 01:42:43;;;;;;;4.47;3.40;;;;;;;18.23;72.57;100828.75;4996850;28;20185;-68
2021/06/12 01:45:09;;;;;;;7.40;4.50;;;;;;;18.25;72.44;100832.19;4996776;28;20183;-68
2021/06/12 01:47:34;;;;;;;7.00;3.60;;;;;;;18.19;72.63;100837.22;4980502;28;20181;-68
2021/06/12 01:50:02;;;;;;;5.10;3.60;;;;;;;18.09;73.51;100827.22;4996892;28;20165;-68
2021/06/12 01:52:28;;;;;;;6.00;3.13;;;;;;;18.05;73.82;100822.19;5014307;28;20650;-69
2021/06/12 01:54:55;;;;;;;6.60;3.20;;;;;;;17.92;74.46;100818.81;4980270;28;20172;-69
2021/06/12 01:57:21;;;;;;;4.23;3.40;;;;;;;17.85;75.15;100813.09;5034955;23;20231;-75
2021/06/12 01:59:48;;;;;;;8.63;3.50;;;;;;;17.90;74.95;100807.31;5019564;28;20636;-74
2021/06/12 02:02:13;;;;;;;6.40;3.53;;;;;;;17.91;75.20;100811.72;5036006;28;20635;-75
2021/06/12 02:04:40;;;;;;;4.40;3.47;;;;;;;17.97;75.18;100803.09;5036075;28;20191;-75
2021/06/12 02:07:06;;;;;;;5.43;3.20;;;;;;;17.93;75.58;100798.94;5019670;28;20202;-74
2021/06/12 02:09:33;;;;;;;7.37;3.20;;;;;;;17.97;75.21;100793.16;5036025;28;20210;-76
2021/06/12 02:11:58;;;;;;;4.73;3.47;;;;;;;18.01;75.40;100796.44;5035984;28;20191;-74
2021/06/12 02:14:24;;;;;;;6.60;3.53;;;;;;;18.02;75.67;100799.00;5035950;28;20544;-74
2021/06/12 02:16:50;;;;;;;5.77;3.30;;;;;;;18.16;75.32;100794.28;5035816;28;20198;-74
2021/06/12 02:19:16;;;;;;;5.13;3.57;;;;;;;18.21;75.21;100798.31;5019219;28;20176;-74
2021/06/12 02:21:42;;;;;;;3.90;3.53;;;;;;;18.24;74.95;100787.25;5035881;28;20632;-76
2021/06/12 02:24:08;;;;;;;10.23;3.70;;;;;;;18.28;74.78;100796.81;5019293;28;20229;-75
2021/06/12 02:26:39;;;;;;;8.70;3.77;;;;;;;18.35;74.63;100789.03;5035874;28;20199;-74
2021/06/12 02:29:05;;;;;;;5.40;2.93;;;;;;;18.33;74.59;100791.84;5018976;28;20191;-75
2021/06/12 02:31:37;;;;;;;9.77;3.40;;;;;;;18.34;74.73;100792.72;5035765;28;20567;-74
2021/06/12 02:34:03;;;;;;;4.33;3.10;;;;;;;18.27;75.01;100797.78;5036840;28;20175;-74
2021/06/12 02:36:28;;;;;;;6.00;3.33;;;;;;;18.25;75.17;100797.06;5039936;28;20733;-74
2021/06/12 02:38:53;;;;;;;5.50;3.37;;;;;;;18.24;75.37;100789.94;5039387;28;20172;-74
2021/06/12 02:41:21;;;;;;;4.40;3.20;;;;;;;18.21;75.06;100779.41;5037536;28;20176;-73
2021/06/12 02:43:46;;;;;;;5.57;3.07;;;;;;;18.21;75.13;100783.94;5036049;28;20175;-74
2021/06/12 02:46:16;;;;;;;3.97;3.27;;;;;;;18.20;75.47;100780.38;5035497;28;20203;-75
2021/06/12 02:48:43;;;;;;;4.53;3.10;;;;;;;18.19;75.37;100778.66;5035519;28;20565;-74
2021/06/12 02:51:08;;;;;;;5.53;3.20;;;;;;;18.17;75.51;100774.38;5035397;28;20250;-73
2021/06/12 02:53:37;;;;;;;4.80;3.07;;;;;;;18.08;75.89;100768.78;5018625;28;20187;-74
2021/06/12 02:56:03;;;;;;;5.93;3.23;;;;;;;18.11;75.89;100773.06;5018782;28;20250;-74
2021/06/12 02:58:28;;;;;;;6.80;3.23;;;;;;;18.08;76.44;100765.22;5020081;28;20597;-74
2021/06/12 03:00:55;;;;;;;3.23;2.90;;;;;;;18.06;76.14;100772.59;5018866;28;20203;-74
2021/06/12 03:03:21;;;;;;;3.07;2.77;;;;;;;18.00;76.50;100768.59;5053131;28;20635;-74
2021/06/12 03:05:49;;;;;;;3.23;2.83;;;;;;;17.97;76.59;100776.94;5019173;28;20210;-74
2021/06/12 03:08:15;;;;;;;6.27;3.20;;;;;;;18.01;76.38;100772.13;5035960;28;20255;-74
2021/06/12 03:10:41;;;;;;;5.07;2.93;;;;;;;18.03;76.59;100783.66;5055778;28;20191;-74
2021/06/12 03:13:10;;;;;;;5.13;3.50;;;;;;;18.00;76.48;100775.81;5035912;28;20667;-74
2021/06/12 03:15:36;;;;;;;3.57;3.27;;;;;;;17.99;76.36;100782.22;5053400;28;20171;-74
2021/06/12 03:18:03;;;;;;;3.67;3.13;;;;;;;17.94;76.20;100782.59;5052573;28;20180;-74
2021/06/12 03:20:29;;;;;;;5.03;3.13;;;;;;;17.98;75.83;100775.09;5029648;28;20183;-75
2021/06/12 03:22:54;;;;;;;4.40;3.00;;;;;;;18.00;75.15;100778.53;5023670;28;20525;-75
2021/06/12 03:25:22;;;;;;;4.63;2.83;;;;;;;18.03;74.66;100775.56;5023061;28;20171;-73
2021/06/12 03:27:48;;;;;;;3.93;2.87;;;;;;;18.05;74.55;100769.03;5023212;28;20175;-74
2021/06/12 03:30:14;;;;;;;5.60;3.10;;;;;;;18.03;74.26;100779.13;5039176;28;20198;-73
2021/06/12 03:32:40;;;;;;;6.27;3.37;;;;;;;18.08;73.84;100773.31;5022640;28;20616;-73
2021/06/12 03:35:07;;;;;;;4.40;2.87;;;;;;;18.07;74.25;100782.41;5039200;28;20219;-73
2021/06/12 03:37:33;;;;;;;5.03;2.70;;;;;;;18.13;74.02;100777.34;5022492;28;20199;-75
2021/06/12 03:39:58;;;;;;;3.17;2.70;;;;;;;18.14;73.85;100789.00;5022705;28;20186;-74
2021/06/12 03:42:24;;;;;;;3.40;2.53;;;;;;;18.18;73.92;100795.00;5022426;28;20190;-74
2021/06/12 03:44:49;;;;;;;3.03;2.47;;;;;;;18.14;73.96;100789.00;5022729;28;20560;-74
2021/06/12 03:47:15;;;;;;;5.43;2.80;;;;;;;18.16;73.79;100795.13;5022486;28;20204;-74
2021/06/12 03:49:41;;;;;;;5.43;2.37;;;;;;;18.21;73.10;100795.63;5022619;28;20283;-74
2021/06/12 03:52:07;;;;;;;5.00;2.60;;;;;;;18.19;73.20;100788.59;5038838;28;20551;-73
2021/06/12 03:54:32;;;;;;;3.33;2.53;;;;;;;18.22;72.84;100793.78;5022417;28;20263;-73
2021/06/12 03:56:58;;;;;;;3.70;2.90;;;;;;;18.17;73.15;100786.03;5038986;28;20218;-73
2021/06/12 03:59:24;;;;;;;3.27;2.77;;;;;;;18.24;72.78;100798.06;5039075;28;20222;-73
2021/06/12 04:01:49;;;;;;;4.80;2.80;;;;;;;18.22;72.52;100793.78;5038845;28;20183;-74
2021/06/12 04:04:14;;;;;;;3.67;2.93;;;;;;;18.31;72.47;100799.25;5022147;28;20545;-73
2021/06/12 04:06:39;;;;;;;2.83;2.57;;;;;;;18.29;72.44;100801.22;5056318;28;20563;-73
2021/06/12 04:09:05;;;;;;;4.73;2.50;;;;;;;18.28;72.72;100798.66;5038672;28;20207;-74
2021/06/12 04:11:30;;;;;;;3.57;2.40;;;;;;;18.22;72.75;100789.22;5038519;28;20198;-73
2021/06/12 04:13:55;;;;;;;4.50;2.97;;;;;;;18.21;72.99;100792.91;5038284;28;20183;-73
2021/06/12 04:16:21;;;;;;;6.10;2.53;;;;;;;18.20;72.93;100801.97;5038475;28;20253;-74
2021/06/12 04:18:46;;;;;;;2.57;2.37;;;;;;;18.10;73.29;100806.47;5038917;28;20176;-74
2021/06/12 04:21:11;;;;;;;5.93;2.33;;;;;;;18.06;72.82;100786.09;5056902;28;20206;-74
2021/06/12 04:23:37;;;;;;;5.33;2.40;;;;;;;18.11;72.38;100782.00;5020385;28;20199;-74
2021/06/12 04:26:02;;;;;;;5.53;2.20;;;;;;;18.11;72.30;100787.41;5021420;28;20221;-74
2021/06/12 04:28:27;;;;;;;3.03;2.40;;;;;;;17.88;72.83;100796.63;5055900;28;20279;-74
2021/06/12 04:30:53;;;;;;;8.30;2.40;;;;;;;18.04;72.09;100779.97;5056543;28;20214;-74
2021/06/12 04:33:19;;;;;;;2.97;2.70;;;;;;;18.02;72.48;100776.56;5021761;28;20183;-75
2021/06/12 04:35:44;;;;;;;3.33;2.60;;;;;;;18.02;72.51;100792.75;5055810;28;20295;-75
2021/06/12 04:38:09;;;;;;;7.33;2.77;;;;;;;18.04;72.31;100788.94;5037773;28;20179;-75
2021/06/12 04:40:35;;;;;;;4.53;2.63;;;;;;;18.02;72.47;100782.81;5055935;28;20183;-74
2021/06/12 04:43:05;;;;;;;2.93;2.53;;;;;;;18.13;71.05;100762.97;5037850;28;20182;-74
2021/06/12 04:45:30;;;;;;;5.70;3.37;;;;;;;18.07;71.30;100777.88;5021060;28;20270;-74
2021/06/12 04:47:56;;;;;;;3.30;2.87;;;;;;;18.09;71.52;100783.13;5055454;28;20281;-74
2021/06/12 04:50:21;;;;;;;4.23;2.63;;;;;;;18.19;71.33;100778.66;5037787;28;20583;-74
2021/06/12 04:52:47;;;;;;;4.53;2.60;;;;;;;18.25;71.24;100775.47;5021224;28;20180;-73
2021/06/12 04:55:13;;;;;;;4.30;2.67;;;;;;;18.20;71.37;100774.09;5021153;28;20198;-75
2021/06/12 04:57:39;;;;;;;4.07;2.80;;;;;;;18.11;71.54;100767.66;5038363;28;20210;-76
2021/06/12 05:00:06;;;;;;;5.27;3.57;;;;;;;18.11;71.74;100764.97;5021648;28;20176;-75
2021/06/12 05:02:31;;;;;;;3.00;2.70;;;;;;;18.20;71.43;100774.97;5024270;28;20176;-74
2021/06/12 05:04:57;;;;;;;3.27;2.53;;;;;;;18.27;71.17;100773.47;5057661;28;20190;-75
2021/06/12 05:07:22;;;;;;;4.83;2.73;;;;;;;18.41;70.27;100769.56;5022247;28;20196;-77
2021/06/12 05:09:47;;;;;;;4.13;2.70;;;;;;;18.53;69.79;100768.50;5039212;28;20199;-76
2021/06/12 05:12:13;;;;;;;5.33;2.93;;;;;;;18.46;70.33;100758.34;5038015;28;20681;-75
2021/06/12 05:14:38;;;;;;;5.73;2.80;;;;;;;18.51;70.16;100756.09;5039197;28;20179;-76
2021/06/12 05:17:07;;;;;;;4.17;2.70;;;;;;;18.41;70.34;100762.31;5022173;28;20276;-76
2021/06/12 05:19:32;;;;;;;4.13;2.43;;;;;;;18.52;70.39;100753.28;5023582;28;20590;-75
2021/06/12 05:21:58;;;;;;;3.37;2.60;;;;;;;18.51;70.38;100756.09;5021889;28;20183;-75
2021/06/12 05:24:23;;;;;;;3.47;2.93;;;;;;;18.39;70.24;100763.44;5039846;28;20176;-76
2021/06/12 05:26:48;;;;;;;7.67;3.40;;;;;;;18.43;70.44;100760.34;5041969;28;20245;-75
2021/06/12 05:29:14;;;;;;;3.97;2.77;;;;;;;18.54;69.96;100756.69;5023310;28;20195;-76
2021/06/12 05:31:39;;;;;;;4.10;3.37;;;;;;;18.56;69.31;100748.44;5041851;28;20582;-76
2021/06/12 05:34:04;;;;;;;5.80;3.33;;;;;;;18.43;69.73;100746.84;5040262;28;20175;-74
2021/06/12 05:36:31;;;;;;;4.03;3.40;;;;;;;18.53;69.13;100760.38;5038991;28;20245;-76
2021/06/12 05:38:57;;;;;;;4.47;3.10;;;;;;;18.41;70.11;100766.88;5037356;28;20168;-77
2021/06/12 05:41:22;;;;;;;5.27;3.60;;;;;;;18.32;70.52;100765.81;5020920;28;20213;-75
2021/06/12 05:43:47;;;;;;;5.30;3.10;;;;;;;18.35;70.78;100765.56;5037288;28;20175;-74
2021/06/12 05:46:12;;;;;;;5.47;3.93;;;;;;;18.28;70.88;100760.81;5037122;28;20195;-76
2021/06/12 05:48:38;;;;;;;4.27;3.87;;;;;;;18.17;71.86;100761.72;5055043;28;20202;-75
2021/06/12 05:51:03;;;;;;;4.50;3.97;;;;;;;18.27;71.44;100765.38;5054598;28;20679;-76
2021/06/12 05:53:29;;;;;;;6.83;4.03;;;;;;;18.25;71.53;100772.75;5037236;28;20272;-76
2021/06/12 05:55:54;;;;;;;8.23;4.50;;;;;;;18.28;71.34;100786.00;5036630;28;20262;-76
2021/06/12 05:58:19;;;;;;;7.47;4.50;;;;;;;18.12;71.98;100780.16;5038325;28;20568;-76
2021/06/12 06:00:45;;;;;;;7.50;4.87;;;;;;;18.00;72.26;100773.97;5054849;28;20175;-76
2021/06/12 06:03:10;;;;;;;5.50;4.70;;;;;;;17.81;72.89;100780.06;5039567;28;20175;-77
2021/06/12 06:05:35;;;;;;;7.37;4.77;;;;;;;17.77;73.88;100775.06;5037139;28;20187;-77
2021/06/12 06:08:01;;;;;;;5.80;5.00;;;;;;;17.59;74.45;100769.34;5038385;28;20190;-75
2021/06/12 06:10:26;;;;;;;8.60;5.57;;;;;;;17.61;74.37;100778.16;5038052;28;20187;-74
2021/06/12 06:12:51;;;;;;;9.57;5.53;;;;;;;17.47;75.14;100775.75;5023782;28;20180;-76
2021/06/12 06:15:17;;;;;;;8.27;6.37;;;;;;;17.44;75.73;100775.97;5056392;28;20179;-75
2021/06/12 06:17:43;;;;;;;7.80;6.03;;;;;;;17.40;76.08;100780.78;5038948;28;20172;-76
2021/06/12 06:20:10;;;;;;;8.37;5.87;;;;;;;17.34;76.76;100783.13;5041781;28;20168;-76
2021/06/12 06:22:36;;;;;;;6.87;6.17;;;;;;;17.14;78.27;100777.53;5025750;28;20176;-78
2021/06/12 06:25:03;;;;;;;8.23;5.87;;;;;;;16.90;79.79;100786.72;5024711;28;20274;-78
2021/06/12 06:27:28;;;;;;;8.93;6.53;;;;;;;16.74;81.30;100781.72;5022703;28;20369;-76
2021/06/12 06:29:53;;;;;;;9.00;7.37;;;;;;;16.60;82.73;100777.34;5025557;28;20187;-76
2021/06/12 06:32:19;;;;;;;10.20;8.73;;;;;;;16.43;84.44;100778.69;5040887;28;20184;-76
2021/06/12 06:34:44;;;;;;;11.87;9.73;;;;;;;16.29;86.62;100778.91;5021397;28;20260;-77
2021/06/12 06:37:10;;;;;;;16.00;12.30;;;;;;;16.25;87.43;100780.97;5036486;28;20187;-76
2021/06/12 06:39:35;;;;;;;16.70;12.20;;;;;;;16.07;89.97;100768.09;5039096;28;20168;-76
2021/06/12 06:42:02;;;;;;;13.53;10.83;;;;;;;15.98;90.85;100766.94;5055445;28;20575;-76
2021/06/12 06:44:27;;;;;;;15.10;12.80;;;;;;;15.78;93.51;100772.97;5039588;28;20202;-74
2021/06/12 06:46:53;;;;;;;12.40;10.20;;;;;;;15.78;93.94;100784.59;5053327;28;20192;-77
2021/06/12 06:49:18;;;;;;;16.40;11.27;;;;;;;15.81;94.15;100780.81;5055445;28;20191;-76
2021/06/12 06:51:43;;;;;;;17.67;12.67;;;;;;;15.75;95.84;100774.06;5037880;28;20188;-76
2021/06/12 06:54:10;;;;;;;24.87;17.93;;;;;;;15.79;95.48;100762.09;5024073;28;20651;-76
2021/06/12 06:56:35;;;;;;;17.77;12.60;;;;;;;15.83;95.58;100758.19;5054687;28;20229;-77
2021/06/12 06:59:00;;;;;;;14.73;12.13;;;;;;;15.91;95.06;100758.47;5039405;28;20183;-76
2021/06/12 07:01:26;;;;;;;15.77;11.73;;;;;;;15.91;95.71;100755.78;5040122;28;20198;-75
2021/06/12 07:03:52;;;;;;;18.50;11.73;;;;;;;15.91;95.85;100761.16;5039176;28;20199;-76
2021/06/12 07:06:17;;;;;;;14.53;10.43;;;;;;;15.99;93.80;100754.34;5042975;28;20203;-76
2021/06/12 07:08:42;;;;;;;14.00;10.50;;;;;;;16.04;92.94;100750.34;5037426;28;20176;-76
2021/06/12 07:11:08;;;;;;;13.17;9.70;;;;;;;16.07;93.67;100742.00;5022619;28;20199;-74
2021/06/12 07:13:34;;;;;;;15.10;10.77;;;;;;;16.10;93.79;100741.78;5020856;28;20667;-75
2021/06/12 07:15:59;;;;;;;11.73;9.53;;;;;;;16.19;93.38;100746.44;5021296;28;20218;-76
2021/06/12 07:18:25;;;;;;;13.83;9.13;;;;;;;16.26;92.95;100727.97;5039539;28;20198;-76
2021/06/12 07:20:51;;;;;;;11.30;9.50;;;;;;;16.23;93.05;100723.69;5037968;28;20167;-75
2021/06/12 07:23:16;;;;;;;12.80;8.53;;;;;;;16.32;92.38;100724.78;5036232;28;20599;-76
2021/06/12 07:25:45;;;;;;;10.80;7.83;;;;;;;16.43;90.92;100715.88;5036836;28;20194;-77
2021/06/12 07:28:11;;;;;;;9.03;7.77;;;;;;;16.56;88.92;100722.00;5032147;28;20262;-77
2021/06/12 07:30:40;;;;;;;11.30;8.43;;;;;;;16.92;86.71;100710.13;5046533;28;20207;-77
2021/06/12 07:33:07;;;;;;;12.00;7.60;;;;;;;17.10;83.10;100708.66;5028235;28;20184;-77
2021/06/12 07:35:34;;;;;;;7.63;6.80;;;;;;;17.85;81.88;100715.91;5042158;28;20218;-76
2021/06/12 07:37:59;;;;;;;10.10;8.40;;;;;;;18.32;78.65;100725.31;5042647;28;20259;-77
2021/06/12 07:40:24;;;;;;;9.53;7.73;;;;;;;18.56;76.72;100726.81;5045008;28;20308;-76
2021/06/12 07:42:50;;;;;;;10.97;9.10;;;;;;;18.68;76.50;100734.78;5031741;28;20175;-75
2021/06/12 07:45:15;;;;;;;9.53;7.33;;;;;;;18.79;76.00;100719.44;5033992;28;20176;-75
2021/06/12 07:47:40;;;;;;;10.43;7.80;;;;;;;18.98;73.46;100719.50;5051305;28;20217;-76
2021/06/12 07:50:06;;;;;;;8.13;6.50;;;;;;;18.92;74.06;100712.78;5069300;28;20182;-76
2021/06/12 07:52:31;;;;;;;9.17;7.30;;;;;;;19.02;73.61;100721.81;5055688;28;20176;-75
2021/06/12 07:54:56;;;;;;;11.27;9.47;;;;;;;18.93;73.11;100719.03;5056138;28;20243;-74
2021/06/12 07:57:22;;;;;;;8.33;7.00;;;;;;;18.75;74.15;100721.56;5052882;22;20283;-69
2021/06/12 07:59:47;;;;;;;10.83;7.50;;;;;;;18.41;75.91;100720.94;5016134;28;20173;-69
2021/06/12 08:02:12;;;;;;;9.83;6.67;;;;;;;18.36;76.44;100721.34;5016121;28;20173;-68
2021/06/12 08:04:37;;;;;;;8.40;7.00;;;;;;;18.31;75.40;100718.19;4999258;28;20568;-68
2021/06/12 08:07:03;;;;;;;10.13;7.10;;;;;;;18.12;75.99;100718.06;5016269;28;20259;-68
2021/06/12 08:09:28;;;;;;;7.73;6.90;;;;;;;18.23;76.27;100734.22;4998296;28;20577;-69
2021/06/12 08:11:54;;;;;;;9.10;6.80;;;;;;;18.13;76.48;100722.47;5015738;28;20185;-68
2021/06/12 08:14:19;;;;;;;9.80;7.37;;;;;;;18.41;75.29;100718.22;5016126;28;20188;-68
2021/06/12 08:16:45;;;;;;;8.80;6.53;;;;;;;18.67;74.82;100726.78;5015862;28;20724;-68
2021/06/12 08:19:11;;;;;;;8.43;7.57;;;;;;;18.83;73.32;100726.28;5016287;28;20173;-69
2021/06/12 08:21:36;;;;;;;9.03;7.23;;;;;;;19.08;72.51;100730.34;4998273;28;20173;-68
2021/06/12 08:24:02;;;;;;;8.20;6.63;;;;;;;19.42;70.95;100715.47;4998225;28;20208;-69
2021/06/12 08:26:27;;;;;;;11.93;8.53;;;;;;;19.62;69.61;100709.09;5015539;28;20243;-69
2021/06/12 08:28:54;;;;;;;8.10;6.13;;;;;;;19.58;69.58;100696.84;5015592;28;20208;-68
2021/06/12 08:31:19;;;;;;;6.63;5.90;;;;;;;19.67;68.60;100693.28;5015761;28;20169;-68
2021/06/12 08:33:45;;;;;;;6.63;5.90;;;;;;;19.73;68.77;100682.91;4998601;28;20256;-69
2021/06/12 08:36:10;;;;;;;9.23;6.77;;;;;;;19.77;68.22;100689.72;5016145;28;20208;-68
2021/06/12 08:38:35;;;;;;;6.47;5.50;;;;;;;19.80;68.92;100692.16;5015803;28;20544;-68
2021/06/12 08:41:01;;;;;;;7.67;5.40;;;;;;;19.89;67.91;100696.69;5015975;28;20188;-68
2021/06/12 08:43:27;;;;;;;5.37;4.67;;;;;;;19.80;66.59;100720.09;4998740;28;20208;-68
2021/06/12 08:45:57;;;;;;;6.53;4.77;;;;;;;19.70;67.53;100707.53;5015457;28;20177;-68
2021/06/12 08:48:23;;;;;;;6.13;4.63;;;;;;;19.82;67.14;100703.69;4998329;28;20173;-68
2021/06/12 08:50:49;;;;;;;7.40;4.87;;;;;;;19.95;66.16;100696.97;5015194;28;20677;-68
2021/06/12 08:53:14;;;;;;;5.57;3.97;;;;;;;19.99;65.50;100695.66;5015374;28;20256;-68
2021/06/12 08:55:41;;;;;;;6.77;4.53;;;;;;;19.85;64.84;100695.28;4997813;28;20204;-68
2021/06/12 08:58:06;;;;;;;6.87;4.20;;;;;;;20.07;65.16;100688.66;4997958;28;20192;-68
2021/06/12 09:00:32;;;;;;;4.30;3.77;;;;;;;20.21;64.70;100697.22;4981177;28;20173;-68
2021/06/12 09:03:24;;;;;;;5.40;4.03;;;;;;;20.45;63.44;100687.78;5015123;28;20188;-68
2021/06/12 09:05:56;;;;;;;5.50;3.70;;;;;;;20.55;63.51;100686.72;4998031;28;20680;-68
2021/06/12 09:08:32;;;;;;;6.03;4.40;;;;;;;20.67;61.19;100671.09;4997165;28;20323;-68
2021/06/12 09:11:03;;;;;;;6.43;3.97;;;;;;;20.62;61.75;100662.56;5015133;28;20284;-68
2021/06/12 09:14:02;;;;;;;5.13;4.63;;;;;;;20.87;61.39;100680.88;5015119;28;20215;-68
2021/06/12 09:16:31;;;;;;;11.60;8.40;;;;;;;21.02;61.36;100683.06;4945471;28;20213;-68
2021/06/12 09:19:08;;;;;;;5.40;4.70;;;;;;;21.04;59.48;100673.75;5015329;28;20235;-68
2021/06/12 09:21:36;;;;;;;7.43;4.30;;;;;;;20.85;60.41;100673.88;4997598;28;20610;-68
2021/06/12 09:24:06;;;;;;;3.73;3.33;;;;;;;20.85;60.32;100669.31;4997136;28;20204;-68
2021/06/12 09:26:49;;;;;;;5.90;3.13;;;;;;;20.66;60.01;100665.84;5014484;28;20196;-67
2021/06/12 09:29:19;;;;;;;4.43;3.27;;;;;;;20.45;60.36;100668.78;4996974;28;20689;-68
2021/06/12 09:31:50;;;;;;;3.63;2.87;;;;;;;20.31;60.22;100667.38;4997565;28;20311;-68
2021/06/12 09:34:18;;;;;;;4.47;2.80;;;;;;;20.39;59.49;100672.03;4997111;28;20197;-68
2021/06/12 09:36:44;;;;;;;3.53;2.50;;;;;;;20.51;60.37;100670.91;4997302;28;20205;-68
2021/06/12 09:39:11;;;;;;;3.30;2.93;;;;;;;20.63;59.46;100656.16;4996996;28;20177;-67
2021/06/12 09:41:36;;;;;;;5.93;2.70;;;;;;;20.75;59.02;100656.78;5014430;28;20172;-68
2021/06/12 09:44:02;;;;;;;4.07;2.57;;;;;;;20.63;58.30;100672.41;4996775;28;20263;-67
2021/06/12 09:46:37;;;;;;;4.50;2.33;;;;;;;20.46;59.67;100663.22;4996585;28;20295;-67
2021/06/12 09:49:05;;;;;;;2.47;2.20;;;;;;;20.37;60.58;100660.50;5014505;28;20176;-67
2021/06/12 09:51:31;;;;;;;3.67;2.13;;;;;;;20.48;59.20;100654.94;5014462;28;20196;-68
2021/06/12 09:53:59;;;;;;;2.60;2.20;;;;;;;20.53;58.76;100648.06;4996789;28;20638;-68
2021/06/12 09:56:25;;;;;;;2.97;2.30;;;;;;;20.67;59.13;100659.41;4996776;28;20590;-68
2021/06/12 09:58:51;;;;;;;3.53;2.13;;;;;;;20.50;58.90;100661.06;5014108;28;20179;-67
2021/06/12 10:01:19;;;;;;;4.50;2.13;;;;;;;20.53;59.42;100664.31;5014088;28;20264;-68
2021/06/12 10:03:44;;;;;;;2.43;1.90;;;;;;;20.41;59.61;100656.50;4996982;28;20264;-68
2021/06/12 10:06:13;;;;;;;4.60;2.27;;;;;;;20.27;59.85;100653.25;4996771;28;20718;-67
2021/06/12 10:08:42;;;;;;;4.43;2.40;;;;;;;20.16;60.56;100647.16;5014364;28;20267;-67
2021/06/12 10:11:08;;;;;;;3.97;2.30;;;;;;;20.01;60.83;100646.75;4996347;28;20275;-68
2021/06/12 10:13:33;;;;;;;4.10;2.20;;;;;;;19.91;60.81;100645.94;5013901;28;20712;-68
2021/06/12 10:15:59;;;;;;;5.67;2.30;;;;;;;19.64;61.65;100634.00;5013989;28;20193;-68
2021/06/12 10:18:25;;;;;;;2.43;2.10;;;;;;;19.65;61.27;100640.25;4996530;28;20272;-68
2021/06/12 10:20:51;;;;;;;3.43;2.50;;;;;;;19.57;61.71;100641.00;4996629;28;20209;-68
2021/06/12 10:23:16;;;;;;;3.37;2.03;;;;;;;19.43;62.31;100641.41;5013773;28;20181;-68
2021/06/12 10:25:42;;;;;;;4.40;3.20;;;;;;;19.39;61.73;100639.13;4996162;28;20586;-68
2021/06/12 10:28:09;;;;;;;4.30;2.80;;;;;;;19.32;62.18;100633.41;4979903;28;20265;-68
2021/06/12 10:30:35;;;;;;;3.13;2.40;;;;;;;19.19;62.20;100628.28;5013599;28;20665;-68
2021/06/12 10:33:01;;;;;;;2.77;2.50;;;;;;;19.08;63.38;100625.72;4996256;28;20184;-68
2021/06/12 10:35:26;;;;;;;2.53;2.30;;;;;;;18.99;63.54;100622.00;4981279;28;20180;-68
2021/06/12 10:38:12;;;;;;;3.60;3.00;;;;;;;18.82;64.16;100635.34;4996096;28;20212;-68
2021/06/12 10:40:48;;;;;;;4.90;2.50;;;;;;;18.82;63.41;100641.59;5013769;28;20154;-68
2021/06/12 10:43:22;;;;;;;3.20;2.50;;;;;;;18.86;63.65;100631.38;5014244;28;20172;-68
2021/06/12 10:46:06;;;;;;;2.77;2.23;;;;;;;18.81;63.03;100644.44;4996001;28;20581;-68
2021/06/12 10:48:39;;;;;;;5.10;2.43;;;;;;;18.82;62.66;100656.97;4998747;28;20169;-68
2021/06/12 10:51:05;;;;;;;2.40;2.17;;;;;;;18.71;64.11;100650.69;5013214;28;20728;-68
2021/06/12 10:53:34;;;;;;;3.33;2.20;;;;;;;18.74;64.66;100654.97;4995778;28;20207;-68
2021/06/12 10:56:32;;;;;;;4.23;2.40;;;;;;;18.51;64.18;100685.84;5013295;28;20200;-68
2021/06/12 10:58:58;;;;;;;5.63;1.87;;;;;;;18.46;62.80;100640.31;4988522;28;20201;-68
2021/06/12 11:01:23;;;;;;;4.70;2.37;;;;;;;18.47;62.80;100647.44;5012944;28;20184;-68
2021/06/12 11:09:12;;;;;;;5.33;2.40;;;;;;;18.71;62.78;100639.88;4997431;28;20157;-68
2021/06/12 11:11:37;;;;;;;2.77;2.10;;;;;;;18.72;63.25;100638.03;5013010;28;20192;-68
2021/06/12 11:14:24;;;;;;;2.83;2.40;;;;;;;18.65;64.18;100644.97;5013637;28;20185;-68
2021/06/12 11:17:05;;;;;;;3.30;2.20;;;;;;;18.69;64.46;100631.06;5013789;28;20197;-68
2021/06/12 11:19:35;;;;;;;5.00;2.60;;;;;;;18.69;64.00;100631.06;5013134;28;20255;-68
2021/06/12 11:22:22;;;;;;;3.30;2.47;;;;;;;18.63;65.20;100633.47;5012963;28;20175;-68
2021/06/12 11:24:47;;;;;;;3.70;2.93;;;;;;;18.65;64.99;100642.28;4995198;28;20211;-68
2021/06/12 11:27:42;;;;;;;4.43;2.73;;;;;;;18.47;65.28;100633.91;4979147;28;20200;-68
2021/06/12 11:30:17;;;;;;;3.97;2.77;;;;;;;18.35;65.51;100633.16;4991995;28;20307;-68